Time;durP1;ratioP1;P1;durP2;ratioP2;P2;SDS_P1;SDS_P2;PMS_P1;PMS_P2;Temp;Humidity;BMP_temperature;BMP_pressure;BME280_temperature;BME280_humidity;BME280_pressure;Samples;Min_cycle;Max_cycle;Signal;HPM_P1;HPM_P2
2021/12/07 00:01:09;;;;;;;20.37;13.33;;;2.60;99.90;;;;;;5081898;28;20047;-79
2021/12/07 00:03:35;;;;;;;23.23;13.07;;;2.60;99.90;;;;;;5084855;28;20056;-79
2021/12/07 00:06:03;;;;;;;21.10;13.27;;;2.60;99.90;;;;;;5083265;28;20037;-79
2021/12/07 00:08:29;;;;;;;18.63;11.97;;;2.50;99.90;;;;;;5083581;28;20111;-79
2021/12/07 00:10:56;;;;;;;21.47;13.97;;;2.50;99.90;;;;;;5083661;28;20039;-79
2021/12/07 00:13:24;;;;;;;21.63;13.40;;;2.50;99.90;;;;;;5100432;28;20116;-80
2021/12/07 00:15:50;;;;;;;21.57;14.77;;;2.40;99.90;;;;;;5079263;28;20131;-79
2021/12/07 00:18:16;;;;;;;22.37;14.73;;;2.40;99.90;;;;;;5081394;28;20126;-80
2021/12/07 00:20:42;;;;;;;22.27;14.90;;;2.30;99.90;;;;;;5078792;28;20032;-80
2021/12/07 00:23:10;;;;;;;27.57;16.50;;;2.30;99.90;;;;;;5081262;28;20115;-80
2021/12/07 00:25:37;;;;;;;27.43;16.27;;;2.20;99.90;;;;;;5061292;28;20096;-80
2021/12/07 00:28:04;;;;;;;21.60;14.10;;;2.20;99.90;;;;;;5097292;28;20415;-80
2021/12/07 00:30:32;;;;;;;20.87;14.10;;;2.20;99.90;;;;;;5092082;28;20554;-80
2021/12/07 00:35:36;;;;;;;22.63;15.17;;;2.00;99.90;;;;;;5078167;28;20053;-79
2021/12/07 00:38:11;;;;;;;23.33;15.87;;;1.90;99.90;;;;;;5097177;28;20139;-80
2021/12/07 00:40:38;;;;;;;28.53;16.73;;;1.90;99.90;;;;;;5058252;28;20037;-80
2021/12/07 00:43:04;;;;;;;25.17;16.33;;;1.80;99.90;;;;;;5095621;28;20400;-80
2021/12/07 00:45:33;;;;;;;30.90;18.70;;;1.80;99.90;;;;;;5078455;28;20032;-80
2021/12/07 00:47:59;;;;;;;25.30;17.90;;;1.80;99.90;;;;;;5094386;28;20037;-80
2021/12/07 00:50:27;;;;;;;27.33;17.60;;;1.70;99.90;;;;;;5079538;28;21438;-80
2021/12/07 00:52:54;;;;;;;25.90;16.90;;;1.70;99.90;;;;;;5093617;28;20044;-80
2021/12/07 00:55:25;;;;;;;30.27;16.67;;;1.70;99.90;;;;;;5063845;28;20503;-80
2021/12/07 00:57:56;;;;;;;28.83;18.37;;;1.70;99.90;;;;;;5060162;28;20048;-80
2021/12/07 01:00:25;;;;;;;29.57;18.77;;;1.60;99.90;;;;;;5063805;28;20028;-80
2021/12/07 01:02:50;;;;;;;29.07;18.03;;;1.60;99.90;;;;;;5060610;28;20029;-80
2021/12/07 01:05:22;;;;;;;34.30;21.27;;;1.60;99.90;;;;;;5080581;28;20066;-79
2021/12/07 01:26:45;;;;;;;35.23;20.80;;;1.30;99.90;;;;;;5073028;28;20127;-80
2021/12/07 01:29:10;;;;;;;38.03;23.10;;;1.30;99.90;;;;;;5080536;28;20386;-80
2021/12/07 01:31:50;;;;;;;42.73;22.97;;;1.30;99.90;;;;;;5076489;28;20071;-80
2021/12/07 01:39:49;;;;;;;39.50;23.83;;;1.10;99.90;;;;;;5074324;28;20413;-79
2021/12/07 01:47:42;;;;;;;44.97;26.20;;;1.00;99.90;;;;;;5081795;28;20485;-79
2021/12/07 01:53:18;;;;;;;40.53;24.30;;;1.00;99.90;;;;;;5075328;28;20420;-78
2021/12/07 02:01:09;;;;;;;43.20;24.60;;;0.90;99.90;;;;;;5080278;28;20074;-78
2021/12/07 02:03:36;;;;;;;45.57;28.77;;;0.90;99.90;;;;;;5094569;28;20033;-78
2021/12/07 02:06:02;;;;;;;41.83;26.60;;;0.90;99.90;;;;;;5078903;28;20092;-78
2021/12/07 02:08:27;;;;;;;45.30;27.67;;;0.90;99.90;;;;;;5061205;28;20040;-78
2021/12/07 02:10:58;;;;;;;45.53;27.00;;;1.00;99.90;;;;;;5079109;28;20039;-78
2021/12/07 02:15:56;;;;;;;43.57;23.67;;;1.00;99.90;;;;;;5076762;28;20052;-78
2021/12/07 02:18:21;;;;;;;44.70;25.60;;;1.00;99.90;;;;;;5096737;28;20493;-78
2021/12/07 02:20:47;;;;;;;44.80;26.17;;;1.00;99.90;;;;;;5094042;28;20150;-78
2021/12/07 02:23:13;;;;;;;44.00;24.33;;;0.90;99.90;;;;;;5094939;28;20040;-78
2021/12/07 02:25:39;;;;;;;45.47;25.83;;;1.00;99.90;;;;;;5077007;28;20404;-78
2021/12/07 02:28:11;;;;;;;49.03;27.00;;;1.00;99.90;;;;;;5077360;28;20067;-78
2021/12/07 02:30:37;;;;;;;47.83;27.47;;;0.90;99.90;;;;;;5092288;28;20178;-78
2021/12/07 02:33:02;;;;;;;43.77;23.37;;;1.00;99.90;;;;;;5077432;28;20100;-78
2021/12/07 02:35:28;;;;;;;46.30;27.23;;;0.90;99.90;;;;;;5076238;28;20051;-78
2021/12/07 02:37:56;;;;;;;48.47;25.93;;;0.90;99.90;;;;;;5077749;28;20035;-78
2021/12/07 02:40:22;;;;;;;53.30;28.93;;;0.90;99.90;;;;;;5074140;28;20028;-78
2021/12/07 02:42:48;;;;;;;44.30;25.33;;;0.90;99.90;;;;;;5077041;28;20045;-78
2021/12/07 02:45:14;;;;;;;44.83;23.90;;;1.00;99.90;;;;;;5076059;28;20109;-78
2021/12/07 02:47:40;;;;;;;52.47;28.00;;;0.90;99.90;;;;;;5092990;28;20044;-78
2021/12/07 02:50:06;;;;;;;39.83;24.67;;;0.90;99.90;;;;;;5071106;28;20044;-77
2021/12/07 02:52:32;;;;;;;49.07;25.83;;;0.90;99.90;;;;;;5071027;28;20081;-77
2021/12/07 02:54:58;;;;;;;41.50;23.30;;;0.90;99.90;;;;;;5071412;28;20041;-78
2021/12/07 02:57:24;;;;;;;43.63;24.37;;;0.90;99.90;;;;;;5070896;28;20500;-77
2021/12/07 02:59:59;;;;;;;45.77;25.70;;;1.00;99.90;;;;;;5070999;28;20138;-77
2021/12/07 03:02:25;;;;;;;32.80;20.67;;;1.00;99.90;;;;;;5086801;28;20116;-77
2021/12/07 03:05:01;;;;;;;40.53;23.20;;;1.00;99.90;;;;;;5088116;28;20044;-78
2021/12/07 03:26:59;;;;;;;31.67;18.20;;;1.10;99.90;;;;;;5069947;28;20044;-77
2021/12/07 03:29:25;;;;;;;33.20;18.43;;;1.10;99.90;;;;;;5070673;28;20520;-78
2021/12/07 03:31:51;;;;;;;32.97;20.27;;;1.20;99.90;;;;;;5069858;28;20081;-78
2021/12/07 03:34:16;;;;;;;34.90;20.30;;;1.20;99.90;;;;;;5070236;28;20063;-78
2021/12/07 03:36:42;;;;;;;33.83;19.97;;;1.20;99.90;;;;;;5070624;28;20044;-78
2021/12/07 03:39:07;;;;;;;33.07;19.30;;;1.20;99.90;;;;;;5070259;28;20504;-78
2021/12/07 03:41:34;;;;;;;30.43;17.87;;;1.20;99.90;;;;;;5070662;28;20055;-78
2021/12/07 03:44:00;;;;;;;33.57;20.87;;;1.20;99.90;;;;;;5070301;28;20048;-78
2021/12/07 03:46:26;;;;;;;35.50;20.73;;;1.20;99.90;;;;;;5086950;28;20047;-77
2021/12/07 03:48:51;;;;;;;35.97;20.97;;;1.20;99.90;;;;;;5069423;28;20044;-78
2021/12/07 03:51:17;;;;;;;37.77;20.83;;;1.20;99.90;;;;;;5069784;28;20044;-78
2021/12/07 03:53:43;;;;;;;37.57;21.57;;;1.20;99.90;;;;;;5070301;28;20048;-78
2021/12/07 03:56:10;;;;;;;37.20;22.30;;;1.10;99.90;;;;;;5070325;28;20154;-78
2021/12/07 03:58:37;;;;;;;34.67;20.80;;;1.10;99.90;;;;;;5086500;28;20485;-78
2021/12/07 04:01:06;;;;;;;38.90;21.37;;;1.20;99.90;;;;;;5086922;28;20044;-78
2021/12/07 04:03:34;;;;;;;37.57;23.67;;;1.20;99.90;;;;;;5084310;28;20037;-78
2021/12/07 04:06:04;;;;;;;38.53;23.47;;;1.20;99.90;;;;;;5069732;28;20119;-78
2021/12/07 04:08:30;;;;;;;38.40;24.53;;;1.20;99.90;;;;;;5067487;28;20044;-77
2021/12/07 04:10:56;;;;;;;38.53;23.13;;;1.30;99.90;;;;;;5069940;28;20041;-78
2021/12/07 04:13:22;;;;;;;40.10;23.90;;;1.30;99.90;;;;;;5069268;28;20072;-78
2021/12/07 04:15:49;;;;;;;42.77;22.53;;;1.30;99.90;;;;;;5069955;28;20442;-78
2021/12/07 04:18:15;;;;;;;39.90;22.53;;;1.30;99.90;;;;;;5086477;28;20036;-78
2021/12/07 04:20:41;;;;;;;39.50;23.43;;;1.30;99.90;;;;;;5069417;28;20488;-77
2021/12/07 04:23:07;;;;;;;42.23;25.27;;;1.30;99.90;;;;;;5086178;28;20039;-78
2021/12/07 04:25:33;;;;;;;40.47;24.73;;;1.30;99.90;;;;;;5087098;28;20409;-78
2021/12/07 04:27:59;;;;;;;44.27;25.37;;;1.30;99.90;;;;;;5086467;28;20036;-78
2021/12/07 04:30:31;;;;;;;46.40;26.07;;;1.30;99.90;;;;;;5069691;28;20039;-77
2021/12/07 04:32:58;;;;;;;39.23;24.97;;;1.30;99.90;;;;;;5085954;28;20063;-77
2021/12/07 04:35:25;;;;;;;49.93;26.90;;;1.30;99.90;;;;;;5069579;28;20049;-78
2021/12/07 04:37:52;;;;;;;43.40;22.47;;;1.30;99.90;;;;;;5085923;28;20040;-78
2021/12/07 04:40:23;;;;;;;41.80;24.67;;;1.30;99.90;;;;;;5070058;28;20033;-78
2021/12/07 04:42:49;;;;;;;47.13;25.73;;;1.30;99.90;;;;;;5086156;28;20037;-78
2021/12/07 04:45:33;;;;;;;38.93;23.87;;;1.30;99.90;;;;;;5070579;28;20044;-78
2021/12/07 04:58:29;;;;;;;41.50;25.23;;;1.10;99.90;;;;;;5069696;28;20055;-78
2021/12/07 05:00:55;;;;;;;42.00;26.00;;;1.10;99.90;;;;;;5088439;28;20044;-77
2021/12/07 05:03:21;;;;;;;46.23;26.57;;;1.00;99.90;;;;;;5087847;28;20040;-78
2021/12/07 05:05:50;;;;;;;45.43;26.87;;;1.00;99.90;;;;;;5072206;28;20029;-78
2021/12/07 05:08:28;;;;;;;45.53;25.77;;;0.90;99.90;;;;;;5088534;28;20040;-78
2021/12/07 05:13:27;;;;;;;45.40;26.40;;;0.90;99.90;;;;;;5072043;28;20041;-78
2021/12/07 05:18:37;;;;;;;45.70;26.23;;;0.90;99.90;;;;;;5073368;28;20093;-78
2021/12/07 05:23:56;;;;;;;58.53;30.63;;;0.90;99.90;;;;;;5073772;28;20040;-79
2021/12/07 05:39:59;;;;;;;46.97;25.00;;;0.70;99.90;;;;;;5072164;28;20090;-78
2021/12/07 05:42:25;;;;;;;51.03;24.70;;;0.60;99.90;;;;;;5074249;28;20077;-78
2021/12/07 05:44:53;;;;;;;43.97;23.53;;;0.60;99.90;;;;;;5074398;28;20047;-79
2021/12/07 05:47:18;;;;;;;46.90;26.10;;;0.60;99.90;;;;;;5089404;28;20130;-78
2021/12/07 05:49:44;;;;;;;48.60;26.40;;;0.60;99.90;;;;;;5073269;28;20040;-78
2021/12/07 05:52:10;;;;;;;42.60;23.33;;;0.70;99.90;;;;;;5075092;28;20092;-79
2021/12/07 05:54:36;;;;;;;44.67;21.53;;;0.70;99.90;;;;;;5073896;28;20440;-78
2021/12/07 05:57:03;;;;;;;42.90;24.70;;;0.60;99.90;;;;;;5094770;28;20485;-78
2021/12/07 05:59:28;;;;;;;43.47;23.37;;;0.60;99.90;;;;;;5091101;28;20033;-78
2021/12/07 06:01:54;;;;;;;40.23;23.17;;;0.60;99.90;;;;;;5073790;28;20070;-79
2021/12/07 06:04:19;;;;;;;39.00;21.60;;;0.60;99.90;;;;;;5072331;28;20037;-78
2021/12/07 06:06:45;;;;;;;50.17;25.03;;;0.60;99.90;;;;;;5072603;28;20068;-79
2021/12/07 06:09:10;;;;;;;42.33;20.57;;;0.60;99.90;;;;;;5072351;28;20052;-79
2021/12/07 06:11:36;;;;;;;49.53;24.17;;;0.60;99.90;;;;;;5073568;28;20747;-79
2021/12/07 06:14:02;;;;;;;43.50;22.20;;;0.60;99.90;;;;;;5070160;28;20501;-78
2021/12/07 06:16:30;;;;;;;47.97;22.73;;;0.70;99.90;;;;;;5073103;28;20119;-79
2021/12/07 06:18:57;;;;;;;46.80;20.40;;;0.70;99.90;;;;;;5072853;28;20071;-78
2021/12/07 06:21:23;;;;;;;41.43;21.60;;;0.90;99.90;;;;;;5056110;28;20028;-79
2021/12/07 06:23:49;;;;;;;48.30;21.43;;;1.00;99.90;;;;;;5073243;28;20442;-79
2021/12/07 06:26:14;;;;;;;47.47;23.23;;;1.00;99.90;;;;;;5072772;28;20125;-79
2021/12/07 06:28:40;;;;;;;40.37;20.23;;;1.10;99.90;;;;;;5072964;28;20040;-79
2021/12/07 06:31:05;;;;;;;43.23;22.80;;;1.10;99.90;;;;;;5072981;28;20037;-79
2021/12/07 06:33:31;;;;;;;40.50;20.97;;;1.10;99.90;;;;;;5072898;28;20142;-79
2021/12/07 06:36:01;;;;;;;40.50;20.37;;;1.20;99.90;;;;;;5072653;28;20062;-79
2021/12/07 06:38:29;;;;;;;40.60;20.53;;;1.20;99.90;;;;;;5059998;28;20033;-79
2021/12/07 06:40:55;;;;;;;49.43;22.63;;;1.20;99.90;;;;;;5069795;28;20425;-79
2021/12/07 06:43:22;;;;;;;37.93;17.53;;;1.10;99.90;;;;;;5052844;28;20103;-79
2021/12/07 06:45:48;;;;;;;37.07;19.80;;;1.20;99.90;;;;;;5052809;28;20440;-79
2021/12/07 06:48:13;;;;;;;39.90;20.27;;;1.10;99.90;;;;;;5036020;28;20080;-79
2021/12/07 06:50:39;;;;;;;37.37;19.13;;;1.10;99.90;;;;;;5052853;28;20068;-79
2021/12/07 06:53:05;;;;;;;35.10;20.23;;;1.10;99.90;;;;;;5053219;28;20036;-79
2021/12/07 06:55:31;;;;;;;39.50;18.13;;;1.10;99.90;;;;;;5069884;28;20047;-79
2021/12/07 06:57:57;;;;;;;41.00;21.50;;;1.10;99.90;;;;;;5072534;28;20036;-79
2021/12/07 07:00:23;;;;;;;43.37;20.93;;;1.00;99.90;;;;;;5072639;28;20044;-80
2021/12/07 07:02:48;;;;;;;39.70;19.70;;;1.00;99.90;;;;;;5072206;28;20074;-79
2021/12/07 07:05:15;;;;;;;37.10;18.07;;;1.00;99.90;;;;;;5072679;28;20036;-79
2021/12/07 07:07:42;;;;;;;35.23;17.87;;;1.00;99.90;;;;;;5072417;28;20051;-80
2021/12/07 07:10:10;;;;;;;42.57;20.57;;;1.00;99.90;;;;;;5071846;28;20480;-80
2021/12/07 07:12:36;;;;;;;42.80;19.83;;;1.00;99.90;;;;;;5052202;28;20041;-80
2021/12/07 07:15:03;;;;;;;36.10;19.87;;;1.00;99.90;;;;;;5052314;28;20091;-79
2021/12/07 07:17:28;;;;;;;37.33;18.10;;;1.00;99.90;;;;;;5051765;28;20053;-80
2021/12/07 07:19:54;;;;;;;36.87;19.17;;;1.10;99.90;;;;;;5052296;28;20044;-79
2021/12/07 07:22:19;;;;;;;30.80;16.80;;;1.10;99.90;;;;;;5051954;28;20033;-79
2021/12/07 07:24:45;;;;;;;38.60;19.73;;;1.00;99.90;;;;;;5052067;28;20117;-79
2021/12/07 07:27:11;;;;;;;35.93;19.63;;;1.00;99.90;;;;;;5034232;28;20037;-79
2021/12/07 07:29:37;;;;;;;35.63;19.00;;;1.00;99.90;;;;;;5068597;28;20033;-80
2021/12/07 07:32:02;;;;;;;38.10;19.53;;;1.00;99.90;;;;;;5071671;28;20028;-79
2021/12/07 07:34:28;;;;;;;39.93;20.00;;;1.00;99.90;;;;;;5071875;28;20459;-80
2021/12/07 07:36:54;;;;;;;30.67;18.10;;;1.00;99.90;;;;;;5071655;28;20028;-80
2021/12/07 07:39:20;;;;;;;34.40;18.03;;;1.10;99.90;;;;;;5071763;28;20102;-80
2021/12/07 07:41:45;;;;;;;40.83;20.70;;;1.00;99.90;;;;;;5055289;28;20037;-80
2021/12/07 07:44:11;;;;;;;37.50;20.13;;;1.10;99.90;;;;;;5071898;28;20401;-80
2021/12/07 07:46:36;;;;;;;38.00;19.07;;;1.10;99.90;;;;;;5058536;28;20048;-80
2021/12/07 07:49:04;;;;;;;36.90;17.40;;;1.20;99.90;;;;;;5052047;28;20045;-79
2021/12/07 07:51:29;;;;;;;39.60;18.97;;;1.20;99.90;;;;;;5051778;28;20127;-80
2021/12/07 07:53:56;;;;;;;35.13;18.73;;;1.20;99.90;;;;;;5051609;28;20106;-80
2021/12/07 07:56:22;;;;;;;39.20;18.73;;;1.30;99.90;;;;;;5051130;28;20091;-79
2021/12/07 07:58:47;;;;;;;42.30;20.63;;;1.30;99.90;;;;;;5034592;28;20209;-80
2021/12/07 08:01:13;;;;;;;34.93;17.93;;;1.30;99.90;;;;;;5051340;28;20037;-79
2021/12/07 08:03:39;;;;;;;38.47;17.93;;;1.20;99.90;;;;;;5064580;28;20124;-80
2021/12/07 08:06:04;;;;;;;36.60;19.20;;;1.20;99.90;;;;;;5054475;28;20028;-80
2021/12/07 08:08:30;;;;;;;36.90;17.83;;;1.20;99.90;;;;;;5071141;28;20041;-80
2021/12/07 08:10:55;;;;;;;41.57;19.00;;;1.10;99.90;;;;;;5054546;28;20048;-80
2021/12/07 08:13:21;;;;;;;33.93;18.03;;;1.20;99.90;;;;;;5054528;28;20036;-80
2021/12/07 08:15:49;;;;;;;35.97;17.20;;;1.20;99.90;;;;;;5070667;28;20378;-79
2021/12/07 08:18:14;;;;;;;36.97;18.10;;;1.20;99.90;;;;;;5070731;28;20040;-80
2021/12/07 08:20:42;;;;;;;36.57;20.03;;;1.20;99.90;;;;;;5070821;28;20184;-79
2021/12/07 08:23:07;;;;;;;32.87;17.37;;;1.20;99.90;;;;;;5054226;28;20143;-79
2021/12/07 08:25:39;;;;;;;35.97;18.40;;;1.20;99.90;;;;;;5070687;28;20040;-79
2021/12/07 08:28:11;;;;;;;28.20;16.50;;;1.10;99.90;;;;;;5070625;28;20044;-80
2021/12/07 08:30:38;;;;;;;38.10;17.50;;;1.10;99.90;;;;;;5070712;28;20516;-80
2021/12/07 08:33:04;;;;;;;33.13;15.23;;;1.10;99.90;;;;;;5070671;28;20040;-80
2021/12/07 08:35:30;;;;;;;34.07;17.97;;;1.10;99.90;;;;;;5054239;28;20122;-80
2021/12/07 08:37:56;;;;;;;34.90;17.83;;;1.10;99.90;;;;;;5053946;28;20083;-80
2021/12/07 08:40:25;;;;;;;33.00;17.03;;;1.20;99.90;;;;;;5070698;28;20064;-80
2021/12/07 08:42:51;;;;;;;37.03;18.63;;;1.20;99.90;;;;;;5070843;28;20036;-80
2021/12/07 08:45:19;;;;;;;33.07;17.87;;;1.20;99.90;;;;;;5070801;28;20064;-79
2021/12/07 08:47:46;;;;;;;38.97;17.37;;;1.20;99.90;;;;;;5070280;28;20102;-80
2021/12/07 08:50:18;;;;;;;37.43;17.30;;;1.30;99.90;;;;;;5054145;28;20123;-79
2021/12/07 08:52:46;;;;;;;32.13;16.53;;;1.30;99.90;;;;;;5069854;28;20054;-78
2021/12/07 09:00:45;;;;;;;37.07;16.67;;;1.50;99.90;;;;;;5037332;28;20052;-79
2021/12/07 09:03:10;;;;;;;26.37;15.13;;;1.50;99.90;;;;;;5071299;28;20047;-80
2021/12/07 09:05:38;;;;;;;28.13;15.30;;;1.50;99.90;;;;;;5070820;28;20033;-80
2021/12/07 09:08:03;;;;;;;29.40;15.00;;;1.60;99.90;;;;;;5070561;28;20044;-80
2021/12/07 09:10:29;;;;;;;36.50;16.60;;;1.60;99.90;;;;;;5053632;28;20052;-80
2021/12/07 09:12:55;;;;;;;26.80;15.27;;;1.70;99.90;;;;;;5070819;28;20080;-80
2021/12/07 09:15:20;;;;;;;27.10;13.57;;;1.70;99.90;;;;;;5071163;28;20037;-80
2021/12/07 09:17:46;;;;;;;36.10;15.93;;;1.70;99.90;;;;;;5070669;28;20474;-80
2021/12/07 09:20:15;;;;;;;35.87;14.63;;;1.80;99.90;;;;;;5071579;28;20033;-80
2021/12/07 09:22:43;;;;;;;29.77;14.77;;;1.80;99.90;;;;;;5053973;28;20032;-80
2021/12/07 09:25:09;;;;;;;25.47;13.03;;;1.80;99.90;;;;;;5070520;28;20459;-80
2021/12/07 09:27:35;;;;;;;33.03;14.90;;;1.80;99.90;;;;;;5070379;28;20086;-80
2021/12/07 09:30:02;;;;;;;32.83;14.60;;;1.90;99.90;;;;;;5071361;28;20040;-80
2021/12/07 09:32:28;;;;;;;26.97;12.07;;;2.00;99.90;;;;;;5070627;28;20082;-80
2021/12/07 09:34:53;;;;;;;25.53;13.70;;;2.00;99.90;;;;;;5054715;28;20148;-80
2021/12/07 09:37:19;;;;;;;28.80;13.23;;;2.10;99.90;;;;;;5070868;28;20562;-80
2021/12/07 09:39:45;;;;;;;28.70;14.57;;;2.20;99.90;;;;;;5071700;28;20037;-80
2021/12/07 09:42:10;;;;;;;28.30;12.57;;;2.20;99.90;;;;;;5072177;28;20489;-80
2021/12/07 09:44:36;;;;;;;23.00;12.47;;;2.30;99.90;;;;;;5071949;28;20039;-80
2021/12/07 09:47:02;;;;;;;27.80;13.03;;;2.40;99.90;;;;;;5071925;28;20043;-80
2021/12/07 09:49:27;;;;;;;29.37;12.80;;;2.40;99.90;;;;;;5073731;28;20041;-80
2021/12/07 09:51:53;;;;;;;25.73;13.27;;;2.50;99.90;;;;;;5059455;28;20071;-80
2021/12/07 09:54:19;;;;;;;22.50;10.93;;;2.60;99.90;;;;;;5076204;28;20048;-80
2021/12/07 09:56:45;;;;;;;21.57;10.23;;;2.70;99.90;;;;;;5094136;28;20036;-80
2021/12/07 09:59:11;;;;;;;26.00;12.40;;;2.70;99.90;;;;;;5058546;28;20070;-80
2021/12/07 10:01:40;;;;;;;26.60;10.70;;;2.80;99.90;;;;;;5076131;28;20501;-80
2021/12/07 10:04:06;;;;;;;19.70;9.17;;;2.90;99.90;;;;;;5075064;28;20079;-80
2021/12/07 10:06:32;;;;;;;14.60;9.17;;;2.90;99.90;;;;;;5090964;28;20037;-80
2021/12/07 10:08:58;;;;;;;20.50;8.97;;;2.90;99.90;;;;;;5091099;28;20044;-80
2021/12/07 10:11:24;;;;;;;16.10;8.27;;;3.00;99.90;;;;;;5091960;28;20408;-79
2021/12/07 10:13:51;;;;;;;15.00;7.60;;;3.00;99.90;;;;;;5091725;28;20052;-79
2021/12/07 10:16:22;;;;;;;20.42;9.45;;;3.10;99.90;;;;;;5090846;28;20048;-79
2021/12/07 10:18:48;;;;;;;21.95;9.65;;;3.20;99.90;;;;;;5090606;28;20098;-79
2021/12/07 10:21:24;;;;;;;14.55;7.13;;;3.40;99.90;;;;;;5091047;28;20040;-79
2021/12/07 10:24:02;;;;;;;10.93;5.23;;;3.50;99.90;;;;;;5074162;28;20041;-79
2021/12/07 10:26:39;;;;;;;11.50;6.57;;;3.60;99.90;;;;;;5090877;28;20040;-80
2021/12/07 10:29:19;;;;;;;13.15;7.05;;;3.50;99.90;;;;;;5057095;28;20041;-80
2021/12/07 10:31:47;;;;;;;15.13;5.95;;;3.40;99.90;;;;;;5056520;28;20492;-80
2021/12/07 10:34:22;;;;;;;13.75;6.78;;;3.40;99.90;;;;;;5091360;28;20044;-80
2021/12/07 10:36:53;;;;;;;8.98;4.72;;;3.40;99.90;;;;;;5090829;28;20037;-80
2021/12/07 10:39:32;;;;;;;11.73;6.05;;;3.60;99.90;;;;;;5074129;28;20048;-80
2021/12/07 10:42:05;;;;;;;8.57;3.97;;;3.90;99.90;;;;;;5091086;28;20040;-80
2021/12/07 10:44:36;;;;;;;15.02;5.35;;;4.10;99.90;;;;;;5091607;28;20037;-79
2021/12/07 10:47:10;;;;;;;8.15;4.40;;;4.20;99.90;;;;;;5090461;28;20044;-79
2021/12/07 10:49:53;;;;;;;9.40;3.92;;;4.40;99.90;;;;;;5090189;28;20119;-80
2021/12/07 10:52:40;;;;;;;9.70;4.25;;;4.50;99.90;;;;;;5075076;28;20463;-80
2021/12/07 10:55:21;;;;;;;8.95;3.92;;;4.70;99.90;;;;;;5074227;28;20400;-80
2021/12/07 10:57:51;;;;;;;5.50;3.33;;;4.80;99.90;;;;;;5075236;28;20167;-79
2021/12/07 11:00:40;;;;;;;6.65;3.47;;;4.90;99.90;;;;;;5073166;28;20032;-79
2021/12/07 11:03:17;;;;;;;5.95;3.45;;;5.00;99.90;;;;;;5057606;28;20128;-80
2021/12/07 11:05:54;;;;;;;11.40;3.75;;;5.10;99.90;;;;;;5093680;28;20040;-79
2021/12/07 11:08:25;;;;;;;12.93;4.50;;;5.10;99.90;;;;;;5057257;28;20036;-79
2021/12/07 11:10:54;;;;;;;11.10;3.58;;;5.20;99.90;;;;;;5091736;28;20053;-80
2021/12/07 11:13:25;;;;;;;7.93;4.50;;;5.30;99.90;;;;;;5074147;28;20395;-79
2021/12/07 11:15:57;;;;;;;10.00;3.92;;;5.30;99.90;;;;;;5074146;28;20040;-79
2021/12/07 11:18:29;;;;;;;10.63;3.65;;;5.40;99.90;;;;;;5090374;28;20053;-79
2021/12/07 11:20:59;;;;;;;7.80;3.47;;;5.50;99.90;;;;;;5091005;28;20040;-80
2021/12/07 11:23:28;;;;;;;8.80;3.05;;;5.60;99.90;;;;;;5091463;28;20400;-79
2021/12/07 11:31:50;;;;;;;6.47;2.75;;;6.00;99.90;;;;;;5074155;28;20045;-79
2021/12/07 11:34:27;;;;;;;7.38;3.05;;;6.10;99.90;;;;;;5093631;28;20052;-80
2021/12/07 11:36:58;;;;;;;7.38;2.65;;;6.30;99.90;;;;;;5058366;28;20462;-80
2021/12/07 11:39:32;;;;;;;9.30;2.42;;;6.40;99.90;;;;;;5093828;28;20049;-80
2021/12/07 11:42:13;;;;;;;8.38;4.00;;;6.40;99.90;;;;;;5092868;28;20044;-80
2021/12/07 11:44:52;;;;;;;7.03;2.35;;;6.50;99.90;;;;;;5093040;28;20056;-81
2021/12/07 11:47:35;;;;;;;8.98;2.35;;;6.60;99.90;;;;;;5076007;28;20063;-80
2021/12/07 11:50:23;;;;;;;10.82;3.67;;;6.70;99.90;;;;;;5090776;28;20112;-80
2021/12/07 11:52:53;;;;;;;10.13;4.03;;;6.80;99.90;;;;;;5061643;28;20037;-80
2021/12/07 11:55:19;;;;;;;7.35;3.13;;;7.00;99.90;;;;;;5075300;28;20098;-80
2021/12/07 11:57:46;;;;;;;6.20;2.38;;;7.10;99.90;;;;;;5076971;28;20458;-80
2021/12/07 12:00:18;;;;;;;9.30;3.40;;;7.10;99.90;;;;;;5059188;28;20032;-80
2021/12/07 12:02:43;;;;;;;12.68;3.53;;;7.20;99.90;;;;;;5077918;28;20386;-81
2021/12/07 12:05:09;;;;;;;7.90;2.65;;;7.30;99.90;;;;;;5059405;28;20111;-81
2021/12/07 12:07:36;;;;;;;4.20;2.33;;;7.40;99.90;;;;;;5050816;28;20124;-81
2021/12/07 12:10:03;;;;;;;10.70;3.05;;;7.50;99.90;;;;;;5057028;28;20045;-81
2021/12/07 12:12:53;;;;;;;6.30;2.95;;;7.60;99.90;;;;;;5039771;28;20045;-82
2021/12/07 12:15:41;;;;;;;9.23;2.67;;;7.60;99.90;;;;;;5043222;28;20093;-81
2021/12/07 12:18:47;;;;;;;9.13;3.45;;;7.60;99.90;;;;;;5091252;28;20068;-82
2021/12/07 12:21:29;;;;;;;7.90;2.63;;;7.60;99.90;;;;;;5077542;28;20449;-81
2021/12/07 12:24:14;;;;;;;9.63;2.80;;;7.70;99.90;;;;;;5092521;28;20121;-81
2021/12/07 12:26:44;;;;;;;5.97;2.42;;;7.70;99.90;;;;;;5058835;28;20040;-81
2021/12/07 12:29:20;;;;;;;11.73;3.30;;;7.60;99.90;;;;;;5093587;28;20044;-81
2021/12/07 12:31:51;;;;;;;9.70;3.13;;;7.50;99.90;;;;;;5058231;28;20032;-80
2021/12/07 12:34:38;;;;;;;8.40;3.05;;;7.40;99.90;;;;;;5094251;28;20051;-81
2021/12/07 12:37:20;;;;;;;8.25;2.92;;;7.30;99.90;;;;;;5091132;28;20044;-81
2021/12/07 12:39:55;;;;;;;6.88;2.70;;;7.20;99.90;;;;;;5092642;28;20531;-81
2021/12/07 12:42:40;;;;;;;9.93;3.30;;;7.20;99.90;;;;;;5075066;28;20370;-81
2021/12/07 12:45:20;;;;;;;9.68;4.20;;;7.10;99.90;;;;;;5077292;28;20048;-80
2021/12/07 12:48:13;;;;;;;6.80;3.13;;;7.10;99.90;;;;;;5061231;28;20040;-81
2021/12/07 12:50:46;;;;;;;8.00;2.75;;;7.00;99.90;;;;;;5063845;28;20083;-81
2021/12/07 12:53:15;;;;;;;7.68;2.97;;;6.80;99.90;;;;;;5092410;28;20048;-82
2021/12/07 12:55:48;;;;;;;10.93;3.63;;;6.70;99.90;;;;;;5090259;28;20052;-82
2021/12/07 12:58:27;;;;;;;6.63;2.92;;;6.60;99.90;;;;;;5089200;28;20048;-82
2021/12/07 13:01:14;;;;;;;8.98;3.58;;;6.60;99.90;;;;;;5074199;28;20185;-82
2021/12/07 13:03:43;;;;;;;10.15;3.65;;;6.60;99.90;;;;;;5073525;28;20044;-82
2021/12/07 13:06:12;;;;;;;6.30;2.85;;;6.50;99.90;;;;;;5074604;28;20505;-81
2021/12/07 13:08:54;;;;;;;7.75;3.75;;;6.50;99.90;;;;;;5056570;28;20040;-81
2021/12/07 13:11:44;;;;;;;9.35;3.45;;;6.60;99.90;;;;;;5057886;28;20079;-81
2021/12/07 13:14:27;;;;;;;12.68;4.15;;;6.50;99.90;;;;;;5057093;28;20040;-82
2021/12/07 13:17:02;;;;;;;11.95;3.60;;;6.60;99.90;;;;;;5072960;28;20048;-81
2021/12/07 13:19:28;;;;;;;14.77;4.63;;;6.50;99.90;;;;;;5057242;28;20147;-82
2021/12/07 13:21:56;;;;;;;11.10;3.63;;;6.50;99.90;;;;;;5090329;28;20048;-81
2021/12/07 13:24:32;;;;;;;10.00;3.00;;;6.40;99.90;;;;;;5091549;28;20109;-81
2021/12/07 13:26:58;;;;;;;12.27;4.05;;;6.40;99.90;;;;;;5072416;28;20046;-81
2021/12/07 13:29:26;;;;;;;10.63;3.92;;;6.30;99.90;;;;;;5057589;28;20040;-81
2021/12/07 13:31:56;;;;;;;9.27;3.88;;;6.30;99.90;;;;;;5072979;28;20036;-81
2021/12/07 13:34:37;;;;;;;11.40;4.05;;;6.30;99.90;;;;;;5091652;28;20029;-81
2021/12/07 13:37:04;;;;;;;9.90;3.40;;;6.20;99.90;;;;;;5056887;28;20163;-81
2021/12/07 13:39:36;;;;;;;7.97;3.60;;;6.10;99.90;;;;;;5073743;28;20451;-81
2021/12/07 13:42:10;;;;;;;8.10;3.63;;;6.10;99.90;;;;;;5073342;28;20053;-81
2021/12/07 13:44:48;;;;;;;12.57;4.65;;;6.10;99.90;;;;;;5073334;28;20037;-81
2021/12/07 13:47:17;;;;;;;12.18;4.70;;;6.00;99.90;;;;;;5056097;28;20062;-81
2021/12/07 13:49:49;;;;;;;14.85;4.78;;;5.90;99.90;;;;;;5055953;28;20106;-81
2021/12/07 13:52:19;;;;;;;13.45;5.30;;;5.90;99.90;;;;;;5073007;28;20044;-81
2021/12/07 13:54:50;;;;;;;9.80;5.05;;;5.80;99.90;;;;;;5089282;28;20415;-81
2021/12/07 13:57:40;;;;;;;10.70;5.68;;;5.70;99.90;;;;;;5056411;28;20043;-81
2021/12/07 14:00:17;;;;;;;9.07;5.63;;;5.60;99.90;;;;;;5089879;28;20036;-81
2021/12/07 14:02:49;;;;;;;11.73;5.43;;;5.50;99.90;;;;;;5090898;28;20468;-81
2021/12/07 14:05:18;;;;;;;13.45;6.43;;;5.40;99.90;;;;;;5090178;28;20111;-81
2021/12/07 14:07:45;;;;;;;12.18;6.13;;;5.30;99.90;;;;;;5071717;28;20033;-81
2021/12/07 14:10:24;;;;;;;11.73;5.88;;;5.20;99.90;;;;;;5089760;28;20036;-81
2021/12/07 14:12:53;;;;;;;15.65;6.28;;;5.10;99.90;;;;;;5089597;28;20068;-81
2021/12/07 14:15:35;;;;;;;12.90;6.30;;;5.00;99.90;;;;;;5056534;28;20040;-81
2021/12/07 14:18:03;;;;;;;21.05;8.60;;;4.90;99.90;;;;;;5088189;28;20124;-81
2021/12/07 14:20:36;;;;;;;13.80;6.70;;;4.80;99.90;;;;;;5056557;28;20504;-81
2021/12/07 14:23:24;;;;;;;12.77;6.60;;;4.70;99.90;;;;;;5089135;28;20033;-81
2021/12/07 14:25:54;;;;;;;9.68;6.03;;;4.70;99.90;;;;;;5055998;28;20085;-81
2021/12/07 14:28:37;;;;;;;17.05;7.70;;;4.60;99.90;;;;;;5056486;28;20036;-81
2021/12/07 14:31:11;;;;;;;16.05;7.20;;;4.50;99.90;;;;;;5072379;28;20072;-80
2021/12/07 14:33:46;;;;;;;18.90;7.82;;;4.40;99.90;;;;;;5055892;28;20040;-82
2021/12/07 14:36:15;;;;;;;23.25;8.77;;;4.40;99.90;;;;;;5090153;28;20044;-81
2021/12/07 14:38:41;;;;;;;18.73;8.77;;;4.30;99.90;;;;;;5092758;28;20497;-81
2021/12/07 14:41:11;;;;;;;19.73;9.05;;;4.30;99.90;;;;;;5058524;28;20047;-81